sensor_id;sensor_type;location;lat;lon;timestamp;pressure;altitude;pressure_sealevel;temperature;humidity
20987;BME280;10652;50.306;8.570;2023-07-13T00:03:30;97913.22;;;17.32;52.18
20987;BME280;10652;50.306;8.570;2023-07-13T00:07:37;97902.97;;;17.28;52.45
20987;BME280;10652;50.306;8.570;2023-07-13T00:11:40;97909.13;;;17.28;52.26
20987;BME280;10652;50.306;8.570;2023-07-13T00:15:42;97912.03;;;17.25;52.87
20987;BME280;10652;50.306;8.570;2023-07-13T00:19:44;97906.06;;;17.22;52.94
20987;BME280;10652;50.306;8.570;2023-07-13T00:23:48;97916.94;;;17.19;53.15
20987;BME280;10652;50.306;8.570;2023-07-13T00:27:51;97917.88;;;17.18;53.27
20987;BME280;10652;50.306;8.570;2023-07-13T00:31:53;97915.38;;;17.16;53.70
20987;BME280;10652;50.306;8.570;2023-07-13T00:35:56;97913.56;;;17.17;53.56
20987;BME280;10652;50.306;8.570;2023-07-13T00:39:58;97931.31;;;17.16;53.55
20987;BME280;10652;50.306;8.570;2023-07-13T00:44:01;97921.53;;;17.17;53.46
20987;BME280;10652;50.306;8.570;2023-07-13T00:48:04;97932.16;;;17.17;53.67
20987;BME280;10652;50.306;8.570;2023-07-13T00:52:08;97934.31;;;17.12;53.85
20987;BME280;10652;50.306;8.570;2023-07-13T00:56:11;97929.09;;;17.10;54.24
20987;BME280;10652;50.306;8.570;2023-07-13T01:00:15;97932.94;;;17.06;54.14
20987;BME280;10652;50.306;8.570;2023-07-13T01:04:18;97932.94;;;17.06;55.04
20987;BME280;10652;50.306;8.570;2023-07-13T01:08:21;97938.97;;;17.08;54.88
20987;BME280;10652;50.306;8.570;2023-07-13T01:12:23;97934.66;;;17.07;54.39
20987;BME280;10652;50.306;8.570;2023-07-13T01:16:33;97943.47;;;17.07;54.60
20987;BME280;10652;50.306;8.570;2023-07-13T01:20:36;97943.06;;;17.01;54.43
20987;BME280;10652;50.306;8.570;2023-07-13T01:24:41;97940.13;;;16.93;54.79
20987;BME280;10652;50.306;8.570;2023-07-13T01:28:44;97929.59;;;16.80;54.88
20987;BME280;10652;50.306;8.570;2023-07-13T01:32:46;97936.41;;;16.72;55.32
20987;BME280;10652;50.306;8.570;2023-07-13T01:36:48;97926.34;;;16.64;55.39
20987;BME280;10652;50.306;8.570;2023-07-13T01:40:51;97917.78;;;16.60;55.16
20987;BME280;10652;50.306;8.570;2023-07-13T01:44:53;97916.81;;;16.49;54.40
20987;BME280;10652;50.306;8.570;2023-07-13T01:48:55;97907.13;;;16.37;54.86
20987;BME280;10652;50.306;8.570;2023-07-13T01:52:57;97912.16;;;16.29;55.07
20987;BME280;10652;50.306;8.570;2023-07-13T01:57:00;97906.66;;;16.19;54.74
20987;BME280;10652;50.306;8.570;2023-07-13T02:01:02;97919.63;;;16.11;55.02
20987;BME280;10652;50.306;8.570;2023-07-13T02:05:04;97923.78;;;16.02;54.60
20987;BME280;10652;50.306;8.570;2023-07-13T02:09:07;97932.03;;;15.98;54.41
20987;BME280;10652;50.306;8.570;2023-07-13T02:13:09;97935.97;;;15.92;54.69
20987;BME280;10652;50.306;8.570;2023-07-13T02:17:12;97926.31;;;15.91;55.17
20987;BME280;10652;50.306;8.570;2023-07-13T02:21:14;97931.94;;;15.87;55.11
20987;BME280;10652;50.306;8.570;2023-07-13T02:25:16;97922.53;;;15.83;55.16
20987;BME280;10652;50.306;8.570;2023-07-13T02:29:18;97920.50;;;15.73;55.51
20987;BME280;10652;50.306;8.570;2023-07-13T02:33:20;97927.94;;;15.68;55.86
20987;BME280;10652;50.306;8.570;2023-07-13T02:37:23;97927.72;;;15.59;56.27
20987;BME280;10652;50.306;8.570;2023-07-13T02:41:25;97935.84;;;15.43;56.47
20987;BME280;10652;50.306;8.570;2023-07-13T02:45:27;97933.59;;;15.37;56.74
20987;BME280;10652;50.306;8.570;2023-07-13T02:49:29;97934.44;;;15.25;57.26
20987;BME280;10652;50.306;8.570;2023-07-13T02:53:32;97919.81;;;15.07;57.63
20987;BME280;10652;50.306;8.570;2023-07-13T02:57:34;97929.91;;;14.87;58.32
20987;BME280;10652;50.306;8.570;2023-07-13T03:01:36;97926.19;;;14.77;59.32
20987;BME280;10652;50.306;8.570;2023-07-13T03:05:41;97936.63;;;14.66;59.24
20987;BME280;10652;50.306;8.570;2023-07-13T03:09:44;97935.31;;;14.45;60.00
20987;BME280;10652;50.306;8.570;2023-07-13T03:13:47;97935.19;;;14.34;60.97
20987;BME280;10652;50.306;8.570;2023-07-13T03:17:50;97942.75;;;14.26;61.45
20987;BME280;10652;50.306;8.570;2023-07-13T03:21:52;97947.63;;;14.32;61.97
20987;BME280;10652;50.306;8.570;2023-07-13T03:30:11;97945.81;;;14.46;61.76
20987;BME280;10652;50.306;8.570;2023-07-13T03:34:15;97955.16;;;14.52;61.69
20987;BME280;10652;50.306;8.570;2023-07-13T03:38:18;97965.50;;;14.55;61.53
20987;BME280;10652;50.306;8.570;2023-07-13T03:42:20;97957.41;;;14.58;61.04
20987;BME280;10652;50.306;8.570;2023-07-13T03:46:22;97975.53;;;14.64;60.95
20987;BME280;10652;50.306;8.570;2023-07-13T03:50:24;97982.94;;;14.72;60.42
20987;BME280;10652;50.306;8.570;2023-07-13T03:54:26;97978.34;;;14.75;60.22
20987;BME280;10652;50.306;8.570;2023-07-13T03:58:32;97991.16;;;14.81;59.55
20987;BME280;10652;50.306;8.570;2023-07-13T04:02:49;97988.31;;;14.84;59.79
20987;BME280;10652;50.306;8.570;2023-07-13T04:06:51;97980.50;;;14.96;59.30
20987;BME280;10652;50.306;8.570;2023-07-13T04:10:55;97977.91;;;16.96;56.62
20987;BME280;10652;50.306;8.570;2023-07-13T04:14:57;97973.00;;;19.16;51.09
20987;BME280;10652;50.306;8.570;2023-07-13T04:19:00;97972.09;;;20.99;46.59
20987;BME280;10652;50.306;8.570;2023-07-13T04:23:03;97974.31;;;22.46;43.37
20987;BME280;10652;50.306;8.570;2023-07-13T04:27:05;97973.53;;;23.79;40.76
20987;BME280;10652;50.306;8.570;2023-07-13T04:31:07;97972.31;;;24.93;38.69
20987;BME280;10652;50.306;8.570;2023-07-13T04:35:09;97977.94;;;25.97;36.67
20987;BME280;10652;50.306;8.570;2023-07-13T04:39:12;97975.34;;;26.83;34.97
20987;BME280;10652;50.306;8.570;2023-07-13T04:43:14;97972.59;;;27.67;33.86
20987;BME280;10652;50.306;8.570;2023-07-13T04:47:16;97969.03;;;28.41;32.74
20987;BME280;10652;50.306;8.570;2023-07-13T04:51:19;97966.28;;;29.15;31.63
20987;BME280;10652;50.306;8.570;2023-07-13T04:55:21;97977.66;;;29.95;30.82
20987;BME280;10652;50.306;8.570;2023-07-13T04:59:23;97979.50;;;30.78;29.70
20987;BME280;10652;50.306;8.570;2023-07-13T05:03:25;97979.34;;;31.60;28.91
20987;BME280;10652;50.306;8.570;2023-07-13T05:07:27;97985.66;;;32.26;27.76
20987;BME280;10652;50.306;8.570;2023-07-13T05:11:29;97978.13;;;33.06;26.85
20987;BME280;10652;50.306;8.570;2023-07-13T05:15:32;97988.91;;;33.70;26.56
20987;BME280;10652;50.306;8.570;2023-07-13T05:19:35;97994.03;;;34.34;25.91
20987;BME280;10652;50.306;8.570;2023-07-13T05:23:37;97985.38;;;34.62;24.95
20987;BME280;10652;50.306;8.570;2023-07-13T05:27:39;97992.72;;;35.16;24.98
20987;BME280;10652;50.306;8.570;2023-07-13T05:31:41;97987.75;;;35.84;24.49
20987;BME280;10652;50.306;8.570;2023-07-13T05:35:43;97994.53;;;36.47;23.30
20987;BME280;10652;50.306;8.570;2023-07-13T05:39:46;97988.41;;;36.91;22.95
20987;BME280;10652;50.306;8.570;2023-07-13T05:43:48;97983.78;;;36.92;22.46
20987;BME280;10652;50.306;8.570;2023-07-13T05:47:50;97994.38;;;36.07;21.49
20987;BME280;10652;50.306;8.570;2023-07-13T05:51:52;97997.75;;;35.79;22.55
20987;BME280;10652;50.306;8.570;2023-07-13T05:55:55;98000.47;;;36.20;22.50
20987;BME280;10652;50.306;8.570;2023-07-13T05:59:58;97999.13;;;36.93;23.99
20987;BME280;10652;50.306;8.570;2023-07-13T06:04:00;97997.59;;;37.37;23.64
20987;BME280;10652;50.306;8.570;2023-07-13T06:08:02;97998.63;;;37.92;23.10
20987;BME280;10652;50.306;8.570;2023-07-13T06:12:05;98002.78;;;38.62;20.90
20987;BME280;10652;50.306;8.570;2023-07-13T06:16:07;98003.66;;;38.29;20.05
20987;BME280;10652;50.306;8.570;2023-07-13T06:20:10;97997.63;;;38.32;20.94
20987;BME280;10652;50.306;8.570;2023-07-13T06:24:12;98011.44;;;38.92;19.74
20987;BME280;10652;50.306;8.570;2023-07-13T06:28:14;98004.00;;;39.09;20.71
20987;BME280;10652;50.306;8.570;2023-07-13T06:32:17;98008.88;;;38.85;19.98
20987;BME280;10652;50.306;8.570;2023-07-13T06:36:19;98012.19;;;38.66;20.18
20987;BME280;10652;50.306;8.570;2023-07-13T06:40:21;98007.34;;;38.39;20.54
20987;BME280;10652;50.306;8.570;2023-07-13T06:44:23;98016.63;;;38.33;20.12
20987;BME280;10652;50.306;8.570;2023-07-13T06:48:25;98020.09;;;38.46;21.67
20987;BME280;10652;50.306;8.570;2023-07-13T06:52:27;98018.84;;;38.92;20.78
20987;BME280;10652;50.306;8.570;2023-07-13T06:56:29;98025.66;;;39.49;21.20
20987;BME280;10652;50.306;8.570;2023-07-13T07:00:32;98026.50;;;39.06;19.85
20987;BME280;10652;50.306;8.570;2023-07-13T07:04:34;98027.25;;;39.23;20.03
20987;BME280;10652;50.306;8.570;2023-07-13T07:08:36;98024.56;;;39.50;20.55
20987;BME280;10652;50.306;8.570;2023-07-13T07:12:38;98036.09;;;39.74;19.90
20987;BME280;10652;50.306;8.570;2023-07-13T07:16:40;98030.63;;;40.33;19.50
20987;BME280;10652;50.306;8.570;2023-07-13T07:20:42;98039.06;;;39.94;19.39
20987;BME280;10652;50.306;8.570;2023-07-13T07:24:44;98034.97;;;36.33;22.28
20987;BME280;10652;50.306;8.570;2023-07-13T07:28:46;98041.06;;;31.86;25.09
20987;BME280;10652;50.306;8.570;2023-07-13T07:33:08;98045.41;;;28.87;28.18
20987;BME280;10652;50.306;8.570;2023-07-13T07:37:11;98038.31;;;27.29;31.12
20987;BME280;10652;50.306;8.570;2023-07-13T07:41:17;98048.44;;;26.33;32.26
20987;BME280;10652;50.306;8.570;2023-07-13T07:45:22;98050.78;;;25.95;33.75
20987;BME280;10652;50.306;8.570;2023-07-13T07:49:24;98042.38;;;25.82;32.56
20987;BME280;10652;50.306;8.570;2023-07-13T07:53:26;98049.25;;;25.52;34.03
20987;BME280;10652;50.306;8.570;2023-07-13T07:57:28;98053.41;;;25.38;33.72
20987;BME280;10652;50.306;8.570;2023-07-13T08:01:33;98053.84;;;25.26;34.25
20987;BME280;10652;50.306;8.570;2023-07-13T08:05:38;98050.88;;;25.37;35.34
20987;BME280;10652;50.306;8.570;2023-07-13T08:09:57;98052.38;;;25.39;33.97
20987;BME280;10652;50.306;8.570;2023-07-13T08:13:59;98048.69;;;25.32;33.86
20987;BME280;10652;50.306;8.570;2023-07-13T08:18:01;98049.72;;;25.48;35.17
20987;BME280;10652;50.306;8.570;2023-07-13T08:22:04;98057.84;;;25.56;33.01
20987;BME280;10652;50.306;8.570;2023-07-13T08:26:06;98057.44;;;25.34;33.82
20987;BME280;10652;50.306;8.570;2023-07-13T08:30:09;98057.75;;;25.31;33.61
20987;BME280;10652;50.306;8.570;2023-07-13T08:34:11;98059.91;;;25.20;32.98
20987;BME280;10652;50.306;8.570;2023-07-13T08:38:17;98068.41;;;24.99;33.34
20987;BME280;10652;50.306;8.570;2023-07-13T08:42:30;98058.78;;;24.63;33.55
20987;BME280;10652;50.306;8.570;2023-07-13T08:46:36;98053.81;;;24.16;34.74
20987;BME280;10652;50.306;8.570;2023-07-13T08:50:49;98055.88;;;24.04;35.75
20987;BME280;10652;50.306;8.570;2023-07-13T08:55:11;98058.38;;;23.98;35.71
20987;BME280;10652;50.306;8.570;2023-07-13T08:59:16;98051.75;;;24.10;35.43
20987;BME280;10652;50.306;8.570;2023-07-13T09:03:22;98055.28;;;24.36;36.17
20987;BME280;10652;50.306;8.570;2023-07-13T09:07:43;98049.69;;;24.55;35.82
20987;BME280;10652;50.306;8.570;2023-07-13T09:12:02;98054.16;;;24.73;36.01
20987;BME280;10652;50.306;8.570;2023-07-13T09:16:09;98053.00;;;24.75;35.54
20987;BME280;10652;50.306;8.570;2023-07-13T09:24:38;98048.78;;;25.07;35.41
20987;BME280;10652;50.306;8.570;2023-07-13T09:28:45;98053.34;;;25.22;34.27
20987;BME280;10652;50.306;8.570;2023-07-13T09:32:52;98054.06;;;25.32;34.93
20987;BME280;10652;50.306;8.570;2023-07-13T09:36:54;98047.81;;;25.16;33.39
20987;BME280;10652;50.306;8.570;2023-07-13T09:41:28;98050.91;;;24.95;32.57
20987;BME280;10652;50.306;8.570;2023-07-13T09:45:30;98037.03;;;24.74;34.11
20987;BME280;10652;50.306;8.570;2023-07-13T09:49:35;98047.81;;;24.82;33.75
20987;BME280;10652;50.306;8.570;2023-07-13T09:53:37;98048.72;;;24.57;34.67
20987;BME280;10652;50.306;8.570;2023-07-13T09:57:46;98051.78;;;24.70;34.92
20987;BME280;10652;50.306;8.570;2023-07-13T10:01:50;98054.88;;;24.83;34.70
20987;BME280;10652;50.306;8.570;2023-07-13T10:05:53;98042.22;;;25.09;35.43
20987;BME280;10652;50.306;8.570;2023-07-13T10:10:01;98044.00;;;25.34;33.05
20987;BME280;10652;50.306;8.570;2023-07-13T10:14:24;98045.16;;;25.40;34.23
20987;BME280;10652;50.306;8.570;2023-07-13T10:18:28;98045.97;;;25.24;33.49
20987;BME280;10652;50.306;8.570;2023-07-13T10:22:52;98052.63;;;25.04;33.21
20987;BME280;10652;50.306;8.570;2023-07-13T10:27:12;98050.25;;;24.93;32.75
20987;BME280;10652;50.306;8.570;2023-07-13T10:31:18;98048.44;;;24.76;33.55
20987;BME280;10652;50.306;8.570;2023-07-13T10:35:22;98042.66;;;24.63;33.82
20987;BME280;10652;50.306;8.570;2023-07-13T10:39:27;98043.84;;;24.60;33.89
20987;BME280;10652;50.306;8.570;2023-07-13T10:43:42;98047.53;;;24.59;33.45
20987;BME280;10652;50.306;8.570;2023-07-13T10:47:45;98045.75;;;24.76;33.60
20987;BME280;10652;50.306;8.570;2023-07-13T10:51:48;98039.75;;;24.82;33.58
20987;BME280;10652;50.306;8.570;2023-07-13T11:00:14;98035.91;;;24.50;34.41
20987;BME280;10652;50.306;8.570;2023-07-13T11:04:18;98048.75;;;24.65;34.22
20987;BME280;10652;50.306;8.570;2023-07-13T11:12:51;98046.41;;;24.70;33.74
20987;BME280;10652;50.306;8.570;2023-07-13T11:16:54;98041.44;;;24.83;34.35
20987;BME280;10652;50.306;8.570;2023-07-13T11:21:16;98039.25;;;25.20;33.67
20987;BME280;10652;50.306;8.570;2023-07-13T11:25:34;98035.75;;;25.44;33.87
20987;BME280;10652;50.306;8.570;2023-07-13T11:29:37;98045.34;;;25.47;32.44
20987;BME280;10652;50.306;8.570;2023-07-13T11:37:45;98035.38;;;25.31;32.14
20987;BME280;10652;50.306;8.570;2023-07-13T11:41:51;98046.34;;;25.29;32.84
20987;BME280;10652;50.306;8.570;2023-07-13T11:45:54;98039.41;;;25.19;33.35
20987;BME280;10652;50.306;8.570;2023-07-13T11:49:56;98035.38;;;25.31;32.90
20987;BME280;10652;50.306;8.570;2023-07-13T11:54:03;98042.47;;;25.40;32.83
20987;BME280;10652;50.306;8.570;2023-07-13T11:58:09;98046.56;;;25.76;32.16
20987;BME280;10652;50.306;8.570;2023-07-13T12:02:17;98038.34;;;25.78;31.79
20987;BME280;10652;50.306;8.570;2023-07-13T12:06:30;98037.34;;;25.71;31.12
20987;BME280;10652;50.306;8.570;2023-07-13T12:10:33;98043.38;;;25.81;32.42
20987;BME280;10652;50.306;8.570;2023-07-13T12:14:35;98046.72;;;25.67;32.43
20987;BME280;10652;50.306;8.570;2023-07-13T12:18:37;98039.84;;;25.48;32.72
20987;BME280;10652;50.306;8.570;2023-07-13T12:22:45;98042.34;;;25.50;32.84
20987;BME280;10652;50.306;8.570;2023-07-13T12:30:57;98046.78;;;25.17;33.14
20987;BME280;10652;50.306;8.570;2023-07-13T12:35:14;98050.88;;;25.37;33.68
20987;BME280;10652;50.306;8.570;2023-07-13T12:39:37;98042.03;;;25.77;33.33
20987;BME280;10652;50.306;8.570;2023-07-13T12:43:39;98052.47;;;25.96;32.61
20987;BME280;10652;50.306;8.570;2023-07-13T12:47:43;98061.91;;;25.92;32.38
20987;BME280;10652;50.306;8.570;2023-07-13T12:51:50;98061.56;;;25.79;33.12
20987;BME280;10652;50.306;8.570;2023-07-13T12:55:55;98072.31;;;25.79;33.32
20987;BME280;10652;50.306;8.570;2023-07-13T13:00:02;98063.22;;;25.64;33.48
20987;BME280;10652;50.306;8.570;2023-07-13T13:04:06;98062.38;;;25.63;33.05
20987;BME280;10652;50.306;8.570;2023-07-13T13:08:11;98074.25;;;25.44;33.63
20987;BME280;10652;50.306;8.570;2023-07-13T13:12:13;98073.81;;;25.57;33.88
20987;BME280;10652;50.306;8.570;2023-07-13T13:16:21;98077.22;;;25.75;33.25
20987;BME280;10652;50.306;8.570;2023-07-13T13:20:24;98089.81;;;25.91;33.15
20987;BME280;10652;50.306;8.570;2023-07-13T13:24:28;98084.44;;;25.99;33.66
20987;BME280;10652;50.306;8.570;2023-07-13T13:28:31;98082.09;;;26.12;33.64
20987;BME280;10652;50.306;8.570;2023-07-13T13:32:34;98091.56;;;26.16;33.25
20987;BME280;10652;50.306;8.570;2023-07-13T13:36:36;98093.03;;;26.03;32.69
20987;BME280;10652;50.306;8.570;2023-07-13T13:40:41;98090.50;;;26.09;32.39
20987;BME280;10652;50.306;8.570;2023-07-13T13:44:43;98081.78;;;26.15;33.03
20987;BME280;10652;50.306;8.570;2023-07-13T13:48:45;98087.81;;;26.09;33.14
20987;BME280;10652;50.306;8.570;2023-07-13T13:52:47;98093.91;;;26.19;33.01
20987;BME280;10652;50.306;8.570;2023-07-13T13:56:51;98096.91;;;26.33;33.22
20987;BME280;10652;50.306;8.570;2023-07-13T14:00:53;98103.63;;;26.04;32.36
20987;BME280;10652;50.306;8.570;2023-07-13T14:05:01;98102.44;;;25.91;32.74
20987;BME280;10652;50.306;8.570;2023-07-13T14:09:04;98096.00;;;25.67;33.70
20987;BME280;10652;50.306;8.570;2023-07-13T14:13:26;98101.94;;;25.71;33.47
20987;BME280;10652;50.306;8.570;2023-07-13T14:17:31;98105.97;;;25.75;33.97
20987;BME280;10652;50.306;8.570;2023-07-13T14:21:33;98105.81;;;25.84;33.32
20987;BME280;10652;50.306;8.570;2023-07-13T14:25:35;98102.63;;;25.97;32.98
20987;BME280;10652;50.306;8.570;2023-07-13T14:29:37;98104.63;;;25.95;32.36
20987;BME280;10652;50.306;8.570;2023-07-13T14:33:39;98108.25;;;25.54;32.97
20987;BME280;10652;50.306;8.570;2023-07-13T14:37:42;98105.44;;;25.13;33.01
20987;BME280;10652;50.306;8.570;2023-07-13T14:41:45;98109.09;;;25.04;33.41
20987;BME280;10652;50.306;8.570;2023-07-13T14:45:49;98112.00;;;25.19;33.16
20987;BME280;10652;50.306;8.570;2023-07-13T14:49:52;98119.94;;;25.28;34.52
20987;BME280;10652;50.306;8.570;2023-07-13T14:53:54;98124.34;;;25.37;34.95
20987;BME280;10652;50.306;8.570;2023-07-13T14:57:56;98111.81;;;25.54;35.79
20987;BME280;10652;50.306;8.570;2023-07-13T15:01:59;98106.25;;;25.56;34.07
20987;BME280;10652;50.306;8.570;2023-07-13T15:06:02;98104.22;;;25.50;34.72
20987;BME280;10652;50.306;8.570;2023-07-13T15:10:19;98106.03;;;25.41;34.24
20987;BME280;10652;50.306;8.570;2023-07-13T15:14:22;98106.84;;;25.25;33.48
20987;BME280;10652;50.306;8.570;2023-07-13T15:18:26;98100.53;;;25.09;32.77
20987;BME280;10652;50.306;8.570;2023-07-13T15:22:29;98101.72;;;25.14;34.46
20987;BME280;10652;50.306;8.570;2023-07-13T15:26:31;98099.38;;;25.11;33.78
20987;BME280;10652;50.306;8.570;2023-07-13T15:30:45;98103.72;;;25.04;33.15
20987;BME280;10652;50.306;8.570;2023-07-13T15:34:48;98105.72;;;25.02;33.18
20987;BME280;10652;50.306;8.570;2023-07-13T15:38:52;98092.22;;;24.94;34.14
20987;BME280;10652;50.306;8.570;2023-07-13T15:42:54;98108.34;;;24.94;33.94
20987;BME280;10652;50.306;8.570;2023-07-13T15:46:57;98097.03;;;24.82;33.88
20987;BME280;10652;50.306;8.570;2023-07-13T15:51:05;98102.16;;;24.68;33.83
20987;BME280;10652;50.306;8.570;2023-07-13T15:55:12;98099.00;;;24.46;33.04
20987;BME280;10652;50.306;8.570;2023-07-13T15:59:15;98097.03;;;24.13;33.74
20987;BME280;10652;50.306;8.570;2023-07-13T16:03:20;98092.41;;;23.97;33.87
20987;BME280;10652;50.306;8.570;2023-07-13T16:07:23;98086.31;;;24.13;34.13
20987;BME280;10652;50.306;8.570;2023-07-13T16:11:27;98094.78;;;24.44;34.41
20987;BME280;10652;50.306;8.570;2023-07-13T16:15:29;98097.59;;;24.60;33.02
20987;BME280;10652;50.306;8.570;2023-07-13T16:19:33;98089.09;;;24.47;34.27
20987;BME280;10652;50.306;8.570;2023-07-13T16:23:35;98091.63;;;24.48;33.29
20987;BME280;10652;50.306;8.570;2023-07-13T16:27:55;98092.41;;;24.41;32.86
20987;BME280;10652;50.306;8.570;2023-07-13T16:36:10;98088.09;;;24.04;34.02
20987;BME280;10652;50.306;8.570;2023-07-13T16:40:28;98079.75;;;23.90;33.71
20987;BME280;10652;50.306;8.570;2023-07-13T16:44:31;98075.22;;;23.90;35.36
20987;BME280;10652;50.306;8.570;2023-07-13T16:48:34;98096.22;;;23.95;35.16
20987;BME280;10652;50.306;8.570;2023-07-13T16:52:36;98089.09;;;23.86;35.80
20987;BME280;10652;50.306;8.570;2023-07-13T16:56:39;98089.28;;;23.84;34.64
20987;BME280;10652;50.306;8.570;2023-07-13T17:00:41;98085.59;;;23.67;34.58
20987;BME280;10652;50.306;8.570;2023-07-13T17:04:44;98090.78;;;23.51;38.09
20987;BME280;10652;50.306;8.570;2023-07-13T17:08:48;98083.41;;;23.53;37.80
20987;BME280;10652;50.306;8.570;2023-07-13T17:12:54;98076.66;;;23.49;37.18
20987;BME280;10652;50.306;8.570;2023-07-13T17:16:57;98089.22;;;23.49;37.41
20987;BME280;10652;50.306;8.570;2023-07-13T17:20:59;98078.66;;;23.47;36.49
20987;BME280;10652;50.306;8.570;2023-07-13T17:25:04;98079.78;;;23.45;38.45
20987;BME280;10652;50.306;8.570;2023-07-13T17:29:14;98084.09;;;23.38;37.31
20987;BME280;10652;50.306;8.570;2023-07-13T17:37:28;98098.66;;;23.08;38.86
20987;BME280;10652;50.306;8.570;2023-07-13T17:41:30;98104.00;;;23.08;38.09
20987;BME280;10652;50.306;8.570;2023-07-13T17:45:33;98099.94;;;23.04;39.24
20987;BME280;10652;50.306;8.570;2023-07-13T17:49:35;98103.50;;;22.95;39.44
20987;BME280;10652;50.306;8.570;2023-07-13T17:53:38;98100.72;;;22.87;38.54
20987;BME280;10652;50.306;8.570;2023-07-13T17:57:44;98098.59;;;22.80;37.81
20987;BME280;10652;50.306;8.570;2023-07-13T18:01:52;98104.66;;;22.83;40.63
20987;BME280;10652;50.306;8.570;2023-07-13T18:05:55;98102.97;;;22.81;38.15
20987;BME280;10652;50.306;8.570;2023-07-13T18:09:57;98107.47;;;22.81;38.42
20987;BME280;10652;50.306;8.570;2023-07-13T18:13:59;98119.34;;;22.78;38.47
20987;BME280;10652;50.306;8.570;2023-07-13T18:18:01;98113.19;;;22.68;37.86
20987;BME280;10652;50.306;8.570;2023-07-13T18:22:10;98114.91;;;22.60;38.27
20987;BME280;10652;50.306;8.570;2023-07-13T18:26:16;98118.03;;;22.46;37.83
20987;BME280;10652;50.306;8.570;2023-07-13T18:30:21;98113.56;;;22.27;38.62
20987;BME280;10652;50.306;8.570;2023-07-13T18:34:24;98114.69;;;22.15;39.23
20987;BME280;10652;50.306;8.570;2023-07-13T18:38:28;98121.88;;;22.05;38.43
20987;BME280;10652;50.306;8.570;2023-07-13T18:42:30;98118.34;;;21.85;38.79
20987;BME280;10652;50.306;8.570;2023-07-13T18:46:32;98114.44;;;21.70;39.00
20987;BME280;10652;50.306;8.570;2023-07-13T18:50:37;98123.13;;;21.62;38.53
20987;BME280;10652;50.306;8.570;2023-07-13T18:54:43;98118.78;;;21.52;39.74
20987;BME280;10652;50.306;8.570;2023-07-13T18:58:45;98118.34;;;21.46;40.26
20987;BME280;10652;50.306;8.570;2023-07-13T19:02:48;98133.59;;;21.35;39.44
20987;BME280;10652;50.306;8.570;2023-07-13T19:06:51;98128.69;;;21.21;40.17
20987;BME280;10652;50.306;8.570;2023-07-13T19:10:54;98127.78;;;21.11;39.92
20987;BME280;10652;50.306;8.570;2023-07-13T19:14:56;98132.25;;;21.00;39.98
20987;BME280;10652;50.306;8.570;2023-07-13T19:18:58;98135.03;;;20.89;40.11
20987;BME280;10652;50.306;8.570;2023-07-13T19:23:05;98140.00;;;20.73;40.60
20987;BME280;10652;50.306;8.570;2023-07-13T19:27:12;98143.00;;;20.59;40.39
20987;BME280;10652;50.306;8.570;2023-07-13T19:31:19;98151.59;;;20.42;41.13
20987;BME280;10652;50.306;8.570;2023-07-13T19:35:23;98154.59;;;20.28;41.19
20987;BME280;10652;50.306;8.570;2023-07-13T19:39:36;98160.13;;;20.15;41.51
20987;BME280;10652;50.306;8.570;2023-07-13T19:43:44;98166.16;;;19.96;42.12
20987;BME280;10652;50.306;8.570;2023-07-13T19:47:46;98171.81;;;19.71;42.38
20987;BME280;10652;50.306;8.570;2023-07-13T19:51:50;98181.06;;;19.45;43.23
20987;BME280;10652;50.306;8.570;2023-07-13T19:55:52;98184.50;;;19.24;44.30
20987;BME280;10652;50.306;8.570;2023-07-13T19:59:54;98182.78;;;19.01;44.68
20987;BME280;10652;50.306;8.570;2023-07-13T20:03:59;98188.69;;;18.82;45.84
20987;BME280;10652;50.306;8.570;2023-07-13T20:08:04;98194.88;;;18.83;46.82
20987;BME280;10652;50.306;8.570;2023-07-13T20:12:12;98199.09;;;18.85;46.54
20987;BME280;10652;50.306;8.570;2023-07-13T20:16:15;98198.50;;;18.82;46.67
20987;BME280;10652;50.306;8.570;2023-07-13T20:24:24;98213.75;;;18.80;47.12
20987;BME280;10652;50.306;8.570;2023-07-13T20:28:26;98223.66;;;18.78;46.21
20987;BME280;10652;50.306;8.570;2023-07-13T20:32:28;98212.03;;;18.68;46.08
20987;BME280;10652;50.306;8.570;2023-07-13T20:36:32;98218.28;;;18.56;46.40
20987;BME280;10652;50.306;8.570;2023-07-13T20:40:35;98221.16;;;18.41;46.89
20987;BME280;10652;50.306;8.570;2023-07-13T20:44:37;98220.78;;;18.35;46.88
20987;BME280;10652;50.306;8.570;2023-07-13T20:48:40;98214.88;;;18.19;47.01
20987;BME280;10652;50.306;8.570;2023-07-13T20:52:52;98225.16;;;18.12;47.28
20987;BME280;10652;50.306;8.570;2023-07-13T20:56:55;98231.78;;;18.07;47.74
20987;BME280;10652;50.306;8.570;2023-07-13T21:00:59;98227.38;;;17.71;48.34
20987;BME280;10652;50.306;8.570;2023-07-13T21:05:23;98234.53;;;17.58;49.22
20987;BME280;10652;50.306;8.570;2023-07-13T21:09:25;98234.13;;;17.38;49.69
20987;BME280;10652;50.306;8.570;2023-07-13T21:13:28;98240.50;;;17.23;50.45
20987;BME280;10652;50.306;8.570;2023-07-13T21:17:32;98249.88;;;17.03;50.51
20987;BME280;10652;50.306;8.570;2023-07-13T21:21:35;98254.25;;;16.79;51.29
20987;BME280;10652;50.306;8.570;2023-07-13T21:25:37;98248.13;;;16.39;52.48
20987;BME280;10652;50.306;8.570;2023-07-13T21:29:39;98240.84;;;16.16;52.65
20987;BME280;10652;50.306;8.570;2023-07-13T21:33:41;98252.13;;;15.93;53.96
20987;BME280;10652;50.306;8.570;2023-07-13T21:37:43;98265.16;;;15.96;54.34
20987;BME280;10652;50.306;8.570;2023-07-13T21:41:45;98278.31;;;15.97;54.11
20987;BME280;10652;50.306;8.570;2023-07-13T21:45:48;98282.66;;;15.98;54.42
20987;BME280;10652;50.306;8.570;2023-07-13T21:49:50;98288.44;;;15.91;54.10
20987;BME280;10652;50.306;8.570;2023-07-13T21:53:53;98293.25;;;15.71;54.56
20987;BME280;10652;50.306;8.570;2023-07-13T21:57:55;98294.78;;;15.61;55.00
20987;BME280;10652;50.306;8.570;2023-07-13T22:01:58;98291.19;;;15.62;55.59
20987;BME280;10652;50.306;8.570;2023-07-13T22:06:02;98294.09;;;15.58;55.82
20987;BME280;10652;50.306;8.570;2023-07-13T22:10:07;98293.25;;;15.43;56.14
20987;BME280;10652;50.306;8.570;2023-07-13T22:14:14;98285.53;;;15.26;56.59